createdAt,value
2023-04-07T00:01:30.253Z,7.40
2023-04-07T00:03:58.810Z,5.60
2023-04-07T00:06:27.477Z,9.30
2023-04-07T00:08:55.745Z,7.55
2023-04-07T00:11:23.611Z,9.15
2023-04-07T00:13:53.342Z,5.28
2023-04-07T00:16:21.767Z,13.20
2023-04-07T00:18:56.458Z,2.83
2023-04-07T00:21:27.340Z,7.20
2023-04-07T00:23:55.746Z,7.65
2023-04-07T00:26:25.473Z,4.28
2023-04-07T00:28:54.897Z,6.00
2023-04-07T00:31:22.918Z,6.82
2023-04-07T00:33:51.276Z,7.50
2023-04-07T00:36:26.006Z,5.25
2023-04-07T00:38:54.297Z,8.43
2023-04-07T00:41:22.361Z,6.28
2023-04-07T00:43:51.407Z,4.38
2023-04-07T00:46:23.948Z,5.50
2023-04-07T00:48:52.213Z,11.52
2023-04-07T00:51:22.348Z,10.00
2023-04-07T00:53:50.721Z,7.55
2023-04-07T00:56:18.760Z,6.75
2023-04-07T00:58:46.711Z,8.38
2023-04-07T01:01:20.288Z,5.18
2023-04-07T01:03:57.932Z,6.22
2023-04-07T01:06:32.697Z,8.82
2023-04-07T01:09:06.201Z,3.40
2023-04-07T01:11:42.855Z,6.05
2023-04-07T01:14:20.009Z,4.82
2023-04-07T01:16:58.410Z,6.55
2023-04-07T01:19:35.349Z,9.15
2023-04-07T01:22:08.906Z,6.15
2023-04-07T01:24:54.685Z,6.43
2023-04-07T01:27:39.467Z,8.45
2023-04-07T01:30:12.855Z,6.85
2023-04-07T01:32:42.848Z,8.32
2023-04-07T01:35:14.604Z,5.72
2023-04-07T01:37:46.611Z,5.20
2023-04-07T01:40:16.113Z,7.40
2023-04-07T01:42:48.264Z,3.88
2023-04-07T01:45:19.414Z,8.00
2023-04-07T01:47:48.620Z,6.53
2023-04-07T01:50:17.460Z,7.80
2023-04-07T01:52:55.245Z,4.93
2023-04-07T01:55:24.365Z,8.23
2023-04-07T01:58:06.612Z,6.13
2023-04-07T02:00:37.660Z,6.88
2023-04-07T02:03:21.194Z,5.70
2023-04-07T02:05:53.548Z,5.32
2023-04-07T02:08:27.138Z,6.65
2023-04-07T02:10:58.456Z,3.20
2023-04-07T02:13:33.990Z,3.35
2023-04-07T02:16:03.597Z,7.55
2023-04-07T02:18:33.648Z,7.15
2023-04-07T02:21:03.373Z,4.25
2023-04-07T02:23:36.484Z,5.75
2023-04-07T02:26:06.653Z,8.85
2023-04-07T02:28:50.406Z,10.50
2023-04-07T02:31:22.720Z,5.28
2023-04-07T02:33:50.838Z,6.97
2023-04-07T02:36:18.786Z,5.85
2023-04-07T02:38:46.824Z,6.43
2023-04-07T02:41:14.864Z,4.72
2023-04-07T02:43:42.942Z,6.40
2023-04-07T02:46:10.909Z,4.57
2023-04-07T02:48:40.327Z,5.65
2023-04-07T02:51:10.966Z,7.63
2023-04-07T02:53:38.852Z,7.50
2023-04-07T02:56:07.650Z,4.97
2023-04-07T02:58:35.895Z,6.32
2023-04-07T03:01:03.980Z,5.55
2023-04-07T03:03:33.841Z,7.63
2023-04-07T03:06:18.101Z,8.40
2023-04-07T03:09:06.684Z,7.63
2023-04-07T03:11:34.824Z,8.30
2023-04-07T03:14:02.819Z,7.55
2023-04-07T03:16:32.962Z,7.10
2023-04-07T03:19:06.537Z,4.32
2023-04-07T03:21:40.692Z,13.75
2023-04-07T03:24:10.056Z,6.20
2023-04-07T03:26:38.338Z,6.90
2023-04-07T03:29:10.267Z,8.20
2023-04-07T03:31:40.627Z,9.95
2023-04-07T03:34:08.676Z,6.75
2023-04-07T03:36:36.531Z,10.00
2023-04-07T03:39:07.987Z,6.93
2023-04-07T03:41:36.072Z,13.82
2023-04-07T03:44:04.365Z,7.80
2023-04-07T03:46:33.765Z,9.32
2023-04-07T03:49:02.192Z,6.57
2023-04-07T03:51:33.044Z,7.25
2023-04-07T03:54:02.803Z,6.28
2023-04-07T03:56:40.980Z,7.88
2023-04-07T03:59:09.493Z,6.32
2023-04-07T04:01:44.422Z,5.95
2023-04-07T04:04:16.280Z,8.73
2023-04-07T04:06:44.617Z,7.55
2023-04-07T04:09:32.933Z,9.55
2023-04-07T04:12:02.572Z,11.63
2023-04-07T04:14:32.493Z,8.07
2023-04-07T04:17:05.543Z,6.35
2023-04-07T04:19:46.681Z,9.27
2023-04-07T04:22:44.767Z,6.82
2023-04-07T04:25:16.291Z,9.20
2023-04-07T04:27:49.987Z,11.70
2023-04-07T04:30:27.096Z,7.07
2023-04-07T04:32:58.698Z,10.52
2023-04-07T04:35:37.142Z,7.53
2023-04-07T04:38:09.728Z,15.52
2023-04-07T04:40:40.660Z,11.68
2023-04-07T04:43:10.672Z,9.48
2023-04-07T04:45:41.100Z,9.15
2023-04-07T04:48:12.137Z,13.45
2023-04-07T04:50:40.306Z,6.60
2023-04-07T04:53:12.386Z,12.70
2023-04-07T04:55:52.246Z,8.45
2023-04-07T04:58:28.503Z,13.30
2023-04-07T05:00:59.614Z,7.15
2023-04-07T05:03:47.957Z,11.52
2023-04-07T05:06:24.138Z,10.25
2023-04-07T05:08:53.881Z,11.68
2023-04-07T05:11:26.134Z,9.65
2023-04-07T05:13:58.180Z,7.82
2023-04-07T05:16:26.372Z,9.38
2023-04-07T05:18:54.637Z,10.65
2023-04-07T05:21:23.231Z,9.55
2023-04-07T05:23:57.865Z,6.47
2023-04-07T05:26:26.132Z,9.45
2023-04-07T05:28:54.831Z,20.33
2023-04-07T05:31:26.930Z,8.75
2023-04-07T05:33:57.946Z,12.70
2023-04-07T05:36:29.954Z,10.23
2023-04-07T05:38:58.754Z,16.13
2023-04-07T05:41:28.083Z,7.35
2023-04-07T05:43:56.516Z,14.10
2023-04-07T05:46:25.940Z,9.65
2023-04-07T05:48:59.162Z,8.93
2023-04-07T05:51:31.508Z,9.32
2023-04-07T05:54:03.999Z,25.10
2023-04-07T05:56:32.685Z,12.75
2023-04-07T05:59:01.917Z,7.03
2023-04-07T06:01:31.438Z,11.13
2023-04-07T06:04:00.718Z,9.98
2023-04-07T06:06:31.414Z,10.45
2023-04-07T06:08:59.734Z,10.43
2023-04-07T06:11:28.296Z,6.50
2023-04-07T06:13:56.336Z,8.18
2023-04-07T06:16:25.188Z,8.93
2023-04-07T06:18:54.745Z,8.13
2023-04-07T06:21:22.699Z,10.77
2023-04-07T06:23:51.087Z,5.43
2023-04-07T06:26:19.314Z,8.05
2023-04-07T06:28:47.181Z,7.03
2023-04-07T06:31:16.653Z,8.02
2023-04-07T06:33:44.703Z,7.00
2023-04-07T06:36:16.537Z,9.32
2023-04-07T06:38:44.570Z,7.60
2023-04-07T06:41:19.626Z,13.55
2023-04-07T06:43:49.291Z,12.05
2023-04-07T06:46:17.471Z,9.65
2023-04-07T06:48:45.622Z,8.25
2023-04-07T06:51:13.480Z,8.15
2023-04-07T06:53:44.222Z,7.95
2023-04-07T06:56:13.113Z,8.32
2023-04-07T06:58:41.159Z,8.32
2023-04-07T07:01:08.982Z,12.82
2023-04-07T07:03:39.829Z,8.15
2023-04-07T07:06:08.043Z,8.07
2023-04-07T07:08:36.061Z,10.43
2023-04-07T07:11:05.642Z,9.50
2023-04-07T07:13:33.472Z,9.00
2023-04-07T07:16:01.524Z,9.05
2023-04-07T07:18:31.562Z,6.07
2023-04-07T07:20:59.723Z,7.70
2023-04-07T07:23:27.610Z,6.63
2023-04-07T07:25:59.573Z,9.30
2023-04-07T07:28:29.254Z,9.70
2023-04-07T07:30:57.370Z,9.25
2023-04-07T07:33:25.280Z,9.65
2023-04-07T07:35:53.566Z,5.55
2023-04-07T07:38:21.762Z,6.35
2023-04-07T07:40:50.205Z,11.82
2023-04-07T07:43:19.013Z,7.63
2023-04-07T07:45:48.402Z,7.10
2023-04-07T07:48:16.490Z,6.53
2023-04-07T07:50:44.672Z,6.03
2023-04-07T07:53:12.463Z,7.22
2023-04-07T07:55:40.251Z,7.32
2023-04-07T07:58:08.344Z,6.60
2023-04-07T08:00:36.275Z,7.93
2023-04-07T08:03:05.933Z,8.00
2023-04-07T08:05:33.880Z,7.55
2023-04-07T08:08:03.003Z,6.30
2023-04-07T08:10:31.050Z,4.78
2023-04-07T08:12:58.806Z,8.27
2023-04-07T08:15:26.758Z,5.82
2023-04-07T08:17:56.060Z,6.53
2023-04-07T08:20:25.644Z,5.00
2023-04-07T08:22:53.716Z,11.18
2023-04-07T08:25:22.035Z,6.13
2023-04-07T08:27:55.122Z,6.35
2023-04-07T08:30:23.425Z,7.70
2023-04-07T08:32:51.477Z,10.82
2023-04-07T08:35:19.408Z,11.55
2023-04-07T08:37:49.536Z,5.88
2023-04-07T08:40:18.437Z,8.65
2023-04-07T08:42:48.958Z,5.15
2023-04-07T08:45:18.414Z,10.65
2023-04-07T08:47:48.302Z,6.10
2023-04-07T08:50:18.705Z,3.70
2023-04-07T08:52:51.343Z,4.43
2023-04-07T08:55:19.419Z,3.92
2023-04-07T08:57:47.803Z,6.07
2023-04-07T09:00:17.023Z,4.80
2023-04-07T09:02:46.422Z,5.85
2023-04-07T09:05:15.508Z,8.73
2023-04-07T09:07:44.292Z,4.28
2023-04-07T09:10:13.707Z,1.67
2023-04-07T09:12:42.404Z,7.22
2023-04-07T09:15:10.777Z,3.72
2023-04-07T09:17:38.913Z,2.55
2023-04-07T09:20:07.901Z,2.55
2023-04-07T09:22:37.502Z,6.68
2023-04-07T09:25:15.788Z,2.83
2023-04-07T09:27:55.924Z,6.38
2023-04-07T09:30:24.934Z,2.90
2023-04-07T09:32:53.015Z,4.22
2023-04-07T09:35:23.438Z,3.92
2023-04-07T09:38:05.399Z,3.83
2023-04-07T09:40:35.060Z,3.38
2023-04-07T09:43:04.328Z,7.65
2023-04-07T09:45:36.173Z,2.80
2023-04-07T09:48:08.804Z,2.97
2023-04-07T09:50:38.477Z,11.50
2023-04-07T09:53:07.143Z,4.55
2023-04-07T09:55:36.856Z,4.38
2023-04-07T09:58:06.389Z,4.75
2023-04-07T10:00:34.865Z,5.18
2023-04-07T10:03:03.581Z,3.83
2023-04-07T10:05:32.737Z,5.72
2023-04-07T10:08:02.151Z,1.85
2023-04-07T10:10:31.939Z,3.53
2023-04-07T10:13:01.502Z,2.35
2023-04-07T10:15:29.409Z,1.98
2023-04-07T10:17:57.898Z,5.97
2023-04-07T10:20:26.858Z,3.75
2023-04-07T10:23:02.458Z,9.25
2023-04-07T10:25:31.478Z,3.90
2023-04-07T10:28:06.709Z,2.60
2023-04-07T10:30:35.671Z,5.43
2023-04-07T10:33:03.638Z,2.53
2023-04-07T10:36:05.894Z,3.53
2023-04-07T10:38:33.943Z,2.72
2023-04-07T10:41:01.879Z,4.20
2023-04-07T10:43:41.853Z,7.13
2023-04-07T10:46:09.816Z,4.60
2023-04-07T10:48:37.724Z,4.65
2023-04-07T10:51:18.872Z,4.75
2023-04-07T10:54:22.307Z,6.00
2023-04-07T10:57:13.358Z,6.53
2023-04-07T11:00:04.351Z,9.02
2023-04-07T11:02:34.028Z,3.08
2023-04-07T11:05:02.811Z,6.13
2023-04-07T11:07:49.875Z,4.03
2023-04-07T11:10:19.428Z,2.95
2023-04-07T11:13:03.877Z,10.73
2023-04-07T11:15:34.072Z,3.75
2023-04-07T11:18:15.923Z,5.28
2023-04-07T11:20:46.301Z,3.85
2023-04-07T11:23:14.922Z,2.45
2023-04-07T11:25:45.450Z,7.22
2023-04-07T11:28:14.559Z,5.60
2023-04-07T11:30:52.857Z,4.28
2023-04-07T11:33:22.555Z,7.13
2023-04-07T11:35:56.651Z,4.40
2023-04-07T11:38:26.089Z,6.47
2023-04-07T11:40:54.601Z,5.57
2023-04-07T11:43:24.039Z,13.20
2023-04-07T11:46:13.161Z,4.35
2023-04-07T11:48:42.992Z,4.18
2023-04-07T11:51:17.896Z,7.05
2023-04-07T11:53:46.148Z,6.50
2023-04-07T11:56:18.543Z,3.65
2023-04-07T11:58:49.827Z,8.75
2023-04-07T12:01:19.183Z,5.75
2023-04-07T12:03:58.902Z,11.95
2023-04-07T12:06:30.941Z,8.88
2023-04-07T12:08:58.984Z,8.85
2023-04-07T12:11:27.118Z,5.72
2023-04-07T12:13:55.195Z,9.05
2023-04-07T12:16:24.749Z,4.38
2023-04-07T12:18:53.345Z,5.65
2023-04-07T12:21:21.420Z,3.67
2023-04-07T12:23:50.338Z,5.13
2023-04-07T12:26:19.027Z,4.38
2023-04-07T12:28:48.499Z,4.28
2023-04-07T12:31:16.347Z,2.60
2023-04-07T12:33:45.743Z,3.97
2023-04-07T12:36:14.035Z,8.65
2023-04-07T12:38:42.490Z,3.92
2023-04-07T12:41:10.443Z,5.50
2023-04-07T12:43:38.358Z,3.75
2023-04-07T12:46:06.386Z,2.78
2023-04-07T12:48:34.430Z,7.38
2023-04-07T12:51:03.914Z,5.78
2023-04-07T12:53:32.513Z,13.40
2023-04-07T12:56:00.288Z,2.13
2023-04-07T12:58:28.179Z,4.15
2023-04-07T13:00:56.799Z,2.92
2023-04-07T13:03:25.065Z,4.47
2023-04-07T13:05:54.965Z,2.22
2023-04-07T13:08:24.134Z,2.95
2023-04-07T13:10:51.853Z,2.70
2023-04-07T13:13:23.874Z,2.30
2023-04-07T13:15:54.650Z,3.05
2023-04-07T13:18:23.428Z,4.35
2023-04-07T13:21:05.494Z,2.53
2023-04-07T13:23:43.877Z,1.63
2023-04-07T13:26:12.155Z,3.88
2023-04-07T13:28:39.985Z,4.28
2023-04-07T13:31:07.847Z,6.25
2023-04-07T13:33:37.663Z,1.05
2023-04-07T13:36:05.859Z,3.63
2023-04-07T13:38:33.852Z,4.82
2023-04-07T13:41:03.937Z,1.45
2023-04-07T13:43:31.832Z,1.38
2023-04-07T13:45:59.711Z,3.33
2023-04-07T13:48:27.638Z,1.23
2023-04-07T13:50:55.548Z,3.78
2023-04-07T13:53:23.603Z,3.20
2023-04-07T13:55:51.349Z,2.92
2023-04-07T13:58:20.513Z,3.67
2023-04-07T14:00:48.351Z,2.17
2023-04-07T14:03:16.468Z,6.57
2023-04-07T14:05:44.306Z,1.67
2023-04-07T14:08:12.132Z,2.90
2023-04-07T14:10:40.574Z,2.63
2023-04-07T14:13:08.391Z,3.88
2023-04-07T14:15:37.586Z,1.88
2023-04-07T14:18:06.334Z,2.05
2023-04-07T14:20:34.397Z,2.85
2023-04-07T14:23:02.558Z,2.10
2023-04-07T14:25:30.388Z,2.67
2023-04-07T14:27:58.547Z,3.03
2023-04-07T14:30:26.924Z,5.05
2023-04-07T14:32:58.512Z,0.98
2023-04-07T14:35:26.657Z,2.80
2023-04-07T14:37:55.589Z,2.22
2023-04-07T14:40:23.407Z,2.55
2023-04-07T14:43:06.503Z,2.38
2023-04-07T14:45:36.149Z,5.20
2023-04-07T14:48:16.582Z,2.17
2023-04-07T14:50:46.119Z,1.02
2023-04-07T14:53:14.662Z,2.70
2023-04-07T14:55:42.751Z,2.05
2023-04-07T14:58:10.651Z,2.42
2023-04-07T15:00:38.472Z,2.72
2023-04-07T15:03:08.009Z,7.95
2023-04-07T15:05:36.069Z,3.72
2023-04-07T15:08:03.886Z,1.02
2023-04-07T15:10:35.416Z,2.88
2023-04-07T15:13:03.620Z,2.42
2023-04-07T15:15:31.525Z,1.17
2023-04-07T15:17:59.980Z,1.30
2023-04-07T15:20:29.364Z,1.80
2023-04-07T15:22:57.731Z,1.92
2023-04-07T15:25:25.579Z,0.90
2023-04-07T15:27:53.493Z,1.52
2023-04-07T15:30:21.461Z,2.25
2023-04-07T15:32:59.056Z,2.55
2023-04-07T15:35:26.970Z,3.03
2023-04-07T15:37:56.414Z,2.72
2023-04-07T15:40:24.605Z,4.97
2023-04-07T15:42:52.405Z,1.42
2023-04-07T15:45:20.349Z,1.70
2023-04-07T15:47:48.153Z,1.55
2023-04-07T15:50:16.033Z,0.80
2023-04-07T15:52:43.832Z,2.08
2023-04-07T15:55:13.228Z,0.30
2023-04-07T15:57:41.272Z,3.03
2023-04-07T16:00:10.335Z,1.02
2023-04-07T16:02:38.608Z,1.17
2023-04-07T16:05:08.039Z,0.82
2023-04-07T16:07:36.409Z,0.20
2023-04-07T16:10:08.031Z,1.85
2023-04-07T16:12:37.883Z,1.40
2023-04-07T16:15:06.799Z,1.63
2023-04-07T16:17:34.624Z,0.00
2023-04-07T16:20:03.278Z,0.60
2023-04-07T16:22:31.162Z,0.30
2023-04-07T16:24:59.149Z,1.80
2023-04-07T16:27:27.101Z,0.77
2023-04-07T16:29:56.952Z,0.77
2023-04-07T16:32:24.880Z,1.55
2023-04-07T16:34:52.739Z,0.80
2023-04-07T16:37:20.558Z,2.65
2023-04-07T16:39:48.391Z,0.50
2023-04-07T16:42:16.156Z,2.25
2023-04-07T16:44:43.945Z,2.17
2023-04-07T16:47:13.076Z,0.95
2023-04-07T16:49:41.079Z,0.60
2023-04-07T16:52:10.017Z,0.77
2023-04-07T16:54:38.148Z,1.65
2023-04-07T16:57:06.101Z,2.10
2023-04-07T16:59:34.565Z,0.28
2023-04-07T17:02:08.214Z,0.65
2023-04-07T17:04:37.873Z,1.02
2023-04-07T17:07:06.349Z,1.10
2023-04-07T17:09:34.988Z,1.92
2023-04-07T17:12:03.974Z,2.63
2023-04-07T17:14:31.892Z,2.20
2023-04-07T17:16:59.806Z,3.50
2023-04-07T17:19:28.061Z,1.25
2023-04-07T17:21:57.562Z,2.58
2023-04-07T17:24:25.325Z,1.33
2023-04-07T17:26:53.386Z,3.72
2023-04-07T17:29:26.078Z,2.95
2023-04-07T17:31:53.882Z,0.65
2023-04-07T17:34:21.739Z,3.22
2023-04-07T17:36:49.556Z,6.55
2023-04-07T17:39:19.275Z,4.53
2023-04-07T17:41:47.817Z,1.52
2023-04-07T17:44:16.102Z,0.85
2023-04-07T17:46:44.096Z,2.92
2023-04-07T17:49:12.416Z,1.38
2023-04-07T17:51:40.273Z,1.52
2023-04-07T17:54:08.081Z,0.52
2023-04-07T17:56:37.996Z,3.15
2023-04-07T17:59:09.046Z,1.42
2023-04-07T18:01:37.445Z,3.22
2023-04-07T18:04:06.680Z,1.35
2023-04-07T18:06:35.147Z,1.63
2023-04-07T18:09:04.767Z,3.00
2023-04-07T18:11:33.851Z,1.95
2023-04-07T18:14:02.969Z,1.38
2023-04-07T18:16:30.925Z,0.30
2023-04-07T18:19:00.418Z,0.25
2023-04-07T18:21:29.429Z,2.50
2023-04-07T18:23:57.325Z,4.32
2023-04-07T18:26:25.391Z,0.93
2023-04-07T18:28:53.420Z,12.90
2023-04-07T18:31:22.718Z,3.83
2023-04-07T18:33:51.016Z,6.50
2023-04-07T18:36:19.085Z,1.48
2023-04-07T18:38:47.189Z,3.00
2023-04-07T18:41:16.115Z,0.32
2023-04-07T18:43:47.276Z,1.50
2023-04-07T18:46:15.577Z,0.28
2023-04-07T18:48:44.788Z,1.75
2023-04-07T18:51:12.919Z,5.03
2023-04-07T18:53:40.801Z,1.38
2023-04-07T18:56:08.729Z,2.83
2023-04-07T18:58:43.665Z,0.32
2023-04-07T19:01:12.222Z,4.22
2023-04-07T19:03:42.061Z,0.35
2023-04-07T19:06:14.772Z,0.85
2023-04-07T19:08:43.605Z,0.70
2023-04-07T19:11:11.754Z,0.10
2023-04-07T19:13:40.459Z,0.90
2023-04-07T19:16:08.728Z,0.10
2023-04-07T19:18:36.697Z,1.67
2023-04-07T19:21:05.101Z,2.65
2023-04-07T19:23:35.400Z,1.35
2023-04-07T19:26:03.412Z,0.28
2023-04-07T19:28:33.726Z,0.82
2023-04-07T19:31:02.660Z,2.15
2023-04-07T19:33:30.669Z,3.72
2023-04-07T19:35:58.766Z,0.40
2023-04-07T19:38:26.632Z,0.08
2023-04-07T19:40:56.102Z,0.90
2023-04-07T19:43:23.863Z,0.75
2023-04-07T19:45:51.761Z,6.70
2023-04-07T19:48:20.210Z,0.60
2023-04-07T19:50:49.608Z,0.15
2023-04-07T19:53:18.008Z,1.48
2023-04-07T19:55:47.013Z,0.10
2023-04-07T19:58:18.755Z,0.73
2023-04-07T20:00:49.662Z,0.25
2023-04-07T20:05:45.357Z,1.70
2023-04-07T20:08:16.280Z,2.72
2023-04-07T20:10:44.189Z,0.90
2023-04-07T20:13:12.024Z,0.63
2023-04-07T20:15:41.128Z,4.00
2023-04-07T20:18:09.029Z,0.35
2023-04-07T20:20:37.634Z,3.92
2023-04-07T20:23:05.542Z,0.45
2023-04-07T20:25:35.564Z,5.28
2023-04-07T20:28:03.310Z,1.23
2023-04-07T20:30:31.305Z,0.85
2023-04-07T20:33:00.563Z,1.88
2023-04-07T20:35:28.405Z,3.65
2023-04-07T20:37:56.322Z,3.00
2023-04-07T20:40:24.180Z,0.85
2023-04-07T20:42:52.652Z,0.55
2023-04-07T20:45:22.191Z,3.60
2023-04-07T20:47:50.499Z,2.00
2023-04-07T20:50:19.989Z,0.50
2023-04-07T20:52:47.940Z,0.50
2023-04-07T20:55:16.263Z,3.95
2023-04-07T20:57:44.469Z,1.45
2023-04-07T21:00:13.201Z,0.70
2023-04-07T21:02:41.791Z,0.32
2023-04-07T21:05:10.892Z,2.63
2023-04-07T21:07:40.141Z,8.85
2023-04-07T21:10:09.706Z,1.90
2023-04-07T21:12:37.693Z,0.98
2023-04-07T21:15:06.620Z,6.95
2023-04-07T21:17:34.726Z,3.17
2023-04-07T21:20:04.094Z,0.45
2023-04-07T21:22:32.127Z,4.13
2023-04-07T21:25:01.371Z,3.42
2023-04-07T21:27:30.280Z,3.90
2023-04-07T21:29:58.066Z,1.48
2023-04-07T21:32:26.663Z,3.17
2023-04-07T21:34:54.725Z,5.13
2023-04-07T21:37:23.495Z,2.08
2023-04-07T21:39:53.919Z,1.45
2023-04-07T21:42:23.177Z,1.75
2023-04-07T21:44:51.109Z,1.05
2023-04-07T21:47:18.989Z,2.00
2023-04-07T21:49:47.172Z,6.15
2023-04-07T21:52:17.269Z,1.33
2023-04-07T21:54:45.644Z,1.20
2023-04-07T21:57:13.617Z,0.30
2023-04-07T21:59:42.902Z,2.58
2023-04-07T22:02:10.916Z,1.05
2023-04-07T22:04:38.797Z,0.30
2023-04-07T22:07:08.194Z,2.60
2023-04-07T22:09:36.912Z,0.40
2023-04-07T22:12:04.794Z,1.52
2023-04-07T22:14:32.591Z,1.83
2023-04-07T22:17:01.781Z,1.00
2023-04-07T22:19:29.657Z,0.63
2023-04-07T22:21:57.512Z,1.08
2023-04-07T22:24:25.394Z,1.38
2023-04-07T22:26:53.870Z,1.38
2023-04-07T22:29:21.705Z,1.80
2023-04-07T22:31:49.629Z,1.42
2023-04-07T22:34:19.075Z,0.60
2023-04-07T22:36:46.995Z,0.25
2023-04-07T22:39:14.858Z,1.13
2023-04-07T22:41:42.763Z,0.95
2023-04-07T22:44:10.569Z,1.75
2023-04-07T22:46:38.455Z,1.23
2023-04-07T22:49:06.499Z,2.88
2023-04-07T22:51:35.963Z,1.30
2023-04-07T22:54:04.003Z,1.10
2023-04-07T22:56:32.391Z,1.05
2023-04-07T22:59:05.299Z,2.63
2023-04-07T23:01:33.733Z,1.55
2023-04-07T23:04:01.578Z,0.55
2023-04-07T23:06:29.516Z,1.70
2023-04-07T23:08:58.791Z,1.10
2023-04-07T23:11:26.632Z,1.95
2023-04-07T23:13:54.412Z,0.80
2023-04-07T23:16:22.198Z,1.25
2023-04-07T23:18:50.380Z,0.93
2023-04-07T23:21:18.245Z,0.68
2023-04-07T23:23:45.992Z,1.30
2023-04-07T23:26:15.444Z,1.95
2023-04-07T23:28:43.322Z,2.15
2023-04-07T23:31:11.028Z,3.30
2023-04-07T23:33:38.746Z,0.40
2023-04-07T23:36:07.140Z,0.68
2023-04-07T23:38:36.317Z,1.10
2023-04-07T23:41:04.394Z,0.98
2023-04-07T23:43:34.117Z,0.70
2023-04-07T23:46:02.821Z,0.98
2023-04-07T23:48:34.206Z,1.33
2023-04-07T23:51:02.147Z,0.77
2023-04-07T23:53:29.888Z,1.13
2023-04-07T23:55:57.962Z,2.10
2023-04-07T23:58:25.808Z,0.63
